Página principal
METAR-TAF:

METAR-TAF

Aeroportos :

La Palma, Espanha

latitude: 28-37N, longitude: 017-45W, altura: 29 m

Observação actual do tempo

O boletim foi feito há 44 minutos, às 05:00 UTC
Vento 10 kt de nor-noroeste
Temperatura 20°C
Humidade 64%
Pressão 1018 hPa
Visibilidade 10 km ou mais
Poucas nuvensa uma altura de 3100 ft

METAR: GCLA 230500Z AUTO 34010KT 9999 FEW031 20/13 Q1018

Hora: 06:44 (05:44 UTC)

Previsão

O boletim foi feito há 3 horas e 44 minutos, às 02:00 UTC
Previsão válida de 23 às 03 UTC a 24 às 03 UTC
Vento 12 kt de norte
Visibilidade 10 km ou mais
Nuvens fragmentadasa uma altura de 3500 ft
Probabilidade 30% :
Temporariamente
de 23 às 08 UTC a 23 às 15 UTC
Vento 15 kt de nor-nordeste com rajadas de 25 kt

TAF: GCLA 230200Z 2303/2403 36012KT 9999 BKN035 TX24/2314Z TN20/2306Z PROB30 TEMPO 2308/2315 02015G25KT

Observações e previsões do tempo de mais de 4000 aeroportos (mensagens METAR e TAF).

As estações disponíveis são os pontos amarelos e vermelhos sobre o mapa.

Mova o rato sobre o mapa para ver o nome da estação.

Depois clique no ponto para visualizar as observações e previsões meteorológicas.

Para alterar o mapa : clique nos botões verdes com uma cruz preta para aumentar o zoom; no botão verde com uma pitada de zoom; ou nas setas verdes para mapas adjacentes.


METAR-TAF: